메인 페이지
METAR-TAF:

METAR-TAF

공항 :

에센보아 국제공항

앙카라 Esenboğa, 터키

위도: 40-07N, 경도: 032-59E, 고도: 953m

현재 날씨관측

예보는 49분 전, 09:50시(UTC)에 발표되었습니다.
북서3kt풍과 북북서풍을 오가는
온도 1°C
습도 59%
기압 1021 hPa
시정 10km 이상
고도 4000ft 상공 구름 보통
고도 10000ft 상공 구름 보통

METAR: LTAC 180950Z 31003KT 260V340 9999 SCT040 SCT100 01/M06 Q1021 NOSIG RMK RWY21L VRB02KT RWY03L VRB01KT RWY21R VRB01KT

시각: 13:39 (10:39 UTC)

예보

예보는 5 시간 59분 전, 04:40시(UTC)에 발표되었습니다.
예보 대상 시간: 18일 06시부터 19일 06시까지 (UTC)
여러 방향의 바람 2kt
시정 10km 이상
고도 3500ft 상공 구름 보통
고도 10000ft 상공 구름 많음

TAF: LTAC 180440Z 1806/1906 VRB02KT 9999 SCT035 BKN100

4,000개 이상의 공항 관측 자료 및 예보 (METAR 및 TAF 보고).

지도상에서 검색 가능한 기상관측소가 노란 점과 빨간 점으로 표시되어 있습니다.

기상관측소 명을 보려면 표시 위로 마우스를 이동하세요.

날씨 관측과 예보를 보려면 클릭하세요.

지도 변경 : 확대하려면 엑스 표시가 있는 녹색 버튼, 축소하려면 빼기 표시가 있는 녹색 버튼, 다음 페이지의 지도를 보려면 녹색 화살표를 클릭하세요.


METAR-TAF: